createdAt,value
2022-11-15T00:01:58.135Z,71.92
2022-11-15T00:05:22.089Z,72.61
2022-11-15T00:08:44.489Z,72.64
2022-11-15T00:12:09.500Z,71.89
2022-11-15T00:15:31.651Z,71.52
2022-11-15T00:18:54.620Z,71.56
2022-11-15T00:22:18.540Z,71.44
2022-11-15T00:25:40.979Z,70.90
2022-11-15T00:29:03.064Z,70.80
2022-11-15T00:32:25.581Z,70.61
2022-11-15T00:35:47.802Z,70.51
2022-11-15T00:39:11.548Z,70.27
2022-11-15T00:42:34.020Z,71.61
2022-11-15T00:45:56.305Z,71.02
2022-11-15T00:49:18.920Z,70.34
2022-11-15T00:52:41.125Z,71.80
2022-11-15T00:56:04.807Z,71.41
2022-11-15T00:59:30.080Z,72.97
2022-11-15T01:02:52.388Z,74.63
2022-11-15T01:06:14.460Z,73.85
2022-11-15T01:09:36.771Z,74.98
2022-11-15T01:13:00.601Z,73.41
2022-11-15T01:16:23.240Z,72.61
2022-11-15T01:19:45.218Z,71.80
2022-11-15T01:23:07.739Z,72.08
2022-11-15T01:26:30.152Z,72.00
2022-11-15T01:29:54.195Z,71.35
2022-11-15T01:33:16.341Z,72.24
2022-11-15T01:40:22.485Z,74.20
2022-11-15T01:43:44.778Z,73.13
2022-11-15T01:47:11.526Z,72.84
2022-11-15T01:50:35.390Z,72.30
2022-11-15T01:54:02.949Z,71.53
2022-11-15T01:57:25.010Z,71.48
2022-11-15T02:00:49.038Z,71.80
2022-11-15T02:04:15.967Z,70.88
2022-11-15T02:07:38.854Z,73.09
2022-11-15T02:11:01.040Z,72.93
2022-11-15T02:14:23.633Z,73.81
2022-11-15T02:17:59.007Z,72.26
2022-11-15T02:21:31.625Z,71.39
2022-11-15T02:25:17.003Z,70.57
2022-11-15T02:28:55.924Z,71.04
2022-11-15T02:32:23.903Z,70.23
2022-11-15T02:35:54.119Z,70.60
2022-11-15T02:39:26.066Z,70.32
2022-11-15T02:43:13.069Z,69.92
2022-11-15T02:46:57.269Z,70.38
2022-11-15T02:50:23.707Z,70.49
2022-11-15T02:53:46.108Z,71.52
2022-11-15T02:57:17.437Z,71.41
2022-11-15T03:00:49.701Z,70.43
2022-11-15T03:04:30.450Z,70.47
2022-11-15T03:08:02.339Z,69.97
2022-11-15T03:11:26.202Z,69.76
2022-11-15T03:14:57.243Z,69.30
2022-11-15T03:18:24.957Z,69.36
2022-11-15T03:21:49.148Z,70.12
2022-11-15T03:25:20.690Z,69.42
2022-11-15T03:28:48.306Z,69.57
2022-11-15T03:32:16.754Z,71.14
2022-11-15T03:35:45.088Z,69.96
2022-11-15T03:39:10.919Z,69.48
2022-11-15T03:42:51.712Z,68.98
2022-11-15T03:46:17.382Z,69.11
2022-11-15T03:49:44.926Z,69.56
2022-11-15T03:53:07.738Z,69.42
2022-11-15T03:56:30.662Z,69.68
2022-11-15T03:59:54.561Z,69.43
2022-11-15T04:03:19.879Z,69.82
2022-11-15T04:06:42.073Z,70.08
2022-11-15T04:10:05.778Z,69.78
2022-11-15T04:13:28.082Z,70.11
2022-11-15T04:16:51.847Z,69.60
2022-11-15T04:20:38.400Z,69.57
2022-11-15T04:24:16.820Z,69.28
2022-11-15T04:27:39.229Z,69.28
2022-11-15T04:31:01.569Z,69.36
2022-11-15T04:34:25.201Z,70.15
2022-11-15T04:37:49.554Z,70.36
2022-11-15T04:41:12.081Z,70.25
2022-11-15T04:44:34.360Z,70.97
2022-11-15T04:47:56.950Z,70.34
2022-11-15T04:51:20.767Z,70.87
2022-11-15T04:54:43.967Z,70.32
2022-11-15T04:58:05.760Z,70.57
2022-11-15T05:01:28.030Z,69.47
2022-11-15T05:04:49.358Z,69.00
2022-11-15T05:08:13.397Z,68.85
2022-11-15T05:11:35.628Z,68.81
2022-11-15T05:14:58.800Z,68.80
2022-11-15T05:18:23.692Z,69.00
2022-11-15T05:21:46.168Z,69.77
2022-11-15T05:25:13.139Z,69.25
2022-11-15T05:28:35.871Z,69.19
2022-11-15T05:31:57.963Z,69.99
2022-11-15T05:35:28.010Z,69.88
2022-11-15T05:38:51.621Z,68.88
2022-11-15T05:42:16.563Z,68.45
2022-11-15T05:45:39.571Z,68.82
2022-11-15T05:49:02.733Z,70.80
2022-11-15T05:52:28.579Z,70.46
2022-11-15T05:55:54.298Z,70.54
2022-11-15T05:59:18.498Z,70.19
2022-11-15T06:02:40.756Z,69.07
2022-11-15T06:06:03.619Z,68.84
2022-11-15T06:09:25.707Z,68.51
2022-11-15T06:12:47.981Z,65.89
2022-11-15T06:16:11.730Z,67.08
2022-11-15T06:19:34.200Z,65.74
2022-11-15T06:23:00.244Z,66.18
2022-11-15T06:26:22.609Z,66.65
2022-11-15T06:29:44.759Z,68.18
2022-11-15T06:33:09.991Z,67.98
2022-11-15T06:36:32.090Z,68.28
2022-11-15T06:39:54.559Z,67.69
2022-11-15T06:43:17.009Z,69.37
2022-11-15T06:46:39.582Z,67.75
2022-11-15T06:50:05.219Z,66.57
2022-11-15T06:53:28.219Z,65.92
2022-11-15T06:56:50.329Z,65.61
2022-11-15T07:00:16.871Z,65.41
2022-11-15T07:03:43.395Z,65.22
2022-11-15T07:07:07.147Z,65.71
2022-11-15T07:10:32.689Z,64.21
2022-11-15T07:13:54.990Z,63.22
2022-11-15T07:17:21.019Z,63.12
2022-11-15T07:20:43.530Z,62.65
2022-11-15T07:24:08.240Z,61.74
2022-11-15T07:27:30.251Z,60.32
2022-11-15T07:30:52.719Z,59.60
2022-11-15T07:34:17.999Z,59.74
2022-11-15T07:37:42.379Z,59.57
2022-11-15T07:41:07.984Z,59.53
2022-11-15T07:44:29.880Z,59.45
2022-11-15T07:47:52.833Z,57.72
2022-11-15T07:51:15.773Z,57.15
2022-11-15T07:54:37.970Z,57.87
2022-11-15T07:58:05.630Z,56.88
2022-11-15T08:01:28.042Z,55.99
2022-11-15T08:04:50.240Z,54.62
2022-11-15T08:08:13.610Z,53.84
2022-11-15T08:11:35.970Z,53.05
2022-11-15T08:14:59.881Z,52.68
2022-11-15T08:18:22.021Z,52.01
2022-11-15T08:21:44.291Z,51.58
2022-11-15T08:25:06.993Z,51.33
2022-11-15T08:28:29.631Z,51.24
2022-11-15T08:31:53.870Z,49.52
2022-11-15T08:35:16.133Z,48.76
2022-11-15T08:38:38.340Z,48.79
2022-11-15T08:42:00.510Z,49.30
2022-11-15T08:45:23.591Z,49.07
2022-11-15T08:48:47.222Z,48.63
2022-11-15T08:52:09.920Z,49.17
2022-11-15T08:55:32.021Z,48.93
2022-11-15T08:59:01.383Z,49.32
2022-11-15T09:02:23.872Z,49.96
2022-11-15T09:05:47.584Z,49.62
2022-11-15T09:09:10.282Z,49.29
2022-11-15T09:12:33.384Z,48.77
2022-11-15T09:15:59.851Z,49.64
2022-11-15T09:19:22.250Z,49.50
2022-11-15T09:22:46.325Z,49.36
2022-11-15T09:26:09.430Z,50.03
2022-11-15T09:29:31.877Z,50.94
2022-11-15T09:32:57.006Z,49.74
2022-11-15T09:36:19.698Z,48.40
2022-11-15T09:39:43.931Z,47.78
2022-11-15T09:43:31.248Z,48.86
2022-11-15T09:47:09.950Z,48.16
2022-11-15T09:50:48.070Z,46.80
2022-11-15T09:57:34.410Z,47.65
2022-11-15T10:00:48.098Z,48.61
2022-11-15T10:03:52.452Z,47.49
2022-11-15T10:07:04.660Z,46.41
2022-11-15T10:10:18.422Z,46.29
2022-11-15T10:13:27.321Z,47.72
2022-11-15T10:17:02.780Z,46.36
2022-11-15T10:20:18.389Z,45.71
2022-11-15T10:23:26.260Z,46.10
2022-11-15T10:26:30.401Z,46.86
2022-11-15T10:29:35.510Z,45.64
2022-11-15T10:32:39.831Z,46.28
2022-11-15T10:35:43.864Z,47.38
2022-11-15T10:39:00.284Z,46.14
2022-11-15T10:42:22.041Z,47.35
2022-11-15T10:45:30.751Z,48.82
2022-11-15T10:48:34.662Z,49.31
2022-11-15T10:51:45.501Z,48.71
2022-11-15T10:54:51.292Z,48.90
2022-11-15T10:57:57.010Z,47.25
2022-11-15T11:01:12.766Z,46.73
2022-11-15T11:04:16.713Z,47.27
2022-11-15T11:07:25.250Z,47.26
2022-11-15T11:10:50.396Z,47.53
2022-11-15T11:13:52.871Z,47.68
2022-11-15T11:17:06.374Z,46.87
2022-11-15T11:20:18.591Z,46.59
2022-11-15T11:23:40.989Z,46.42
2022-11-15T11:26:56.830Z,45.62
2022-11-15T11:30:12.301Z,46.67
2022-11-15T11:33:21.060Z,46.89
2022-11-15T11:36:31.729Z,47.17
2022-11-15T11:39:45.559Z,47.51
2022-11-15T11:43:00.528Z,48.57
2022-11-15T11:46:20.851Z,48.15
2022-11-15T11:49:31.751Z,48.00
2022-11-15T11:52:40.759Z,47.38
2022-11-15T11:55:48.243Z,46.92
2022-11-15T11:58:55.919Z,46.89
2022-11-15T12:02:05.193Z,47.17
2022-11-15T12:05:19.180Z,47.33
2022-11-15T12:08:35.172Z,47.79
2022-11-15T12:11:50.029Z,47.97
2022-11-15T12:14:58.761Z,48.84
2022-11-15T12:18:03.982Z,48.73
2022-11-15T12:21:17.259Z,48.98
2022-11-15T12:24:27.239Z,49.39
2022-11-15T12:27:38.621Z,49.91
2022-11-15T12:30:49.299Z,49.36
2022-11-15T12:34:01.759Z,49.94
2022-11-15T12:37:52.259Z,49.44
2022-11-15T12:41:19.488Z,49.08
2022-11-15T12:45:01.650Z,49.94
2022-11-15T12:48:49.349Z,49.78
2022-11-15T12:52:09.584Z,49.99
2022-11-15T12:55:32.570Z,49.78
2022-11-15T12:58:46.991Z,50.72
2022-11-15T13:02:20.761Z,50.22
2022-11-15T13:06:01.429Z,50.45
2022-11-15T13:09:05.610Z,50.26
2022-11-15T13:12:14.719Z,49.71
2022-11-15T13:15:39.681Z,49.98
2022-11-15T13:18:56.440Z,49.69
2022-11-15T13:22:17.101Z,50.13
2022-11-15T13:25:30.495Z,51.41
2022-11-15T13:28:38.761Z,51.99
2022-11-15T13:31:46.570Z,51.70
2022-11-15T13:34:53.964Z,51.65
2022-11-15T13:37:59.171Z,53.31
2022-11-15T13:41:16.951Z,53.29
2022-11-15T13:44:23.727Z,54.29
2022-11-15T13:47:31.042Z,54.24
2022-11-15T13:50:39.000Z,55.35
2022-11-15T13:53:47.713Z,54.78
2022-11-15T13:56:56.912Z,55.08
2022-11-15T14:00:04.431Z,55.20
2022-11-15T14:03:21.190Z,55.25
2022-11-15T14:06:27.040Z,55.67
2022-11-15T14:09:38.953Z,55.93
2022-11-15T14:12:53.270Z,56.42
2022-11-15T14:15:56.955Z,57.01
2022-11-15T14:19:02.210Z,58.20
2022-11-15T14:22:18.367Z,58.76
2022-11-15T14:25:23.359Z,59.04
2022-11-15T14:28:37.791Z,59.89
2022-11-15T14:31:43.888Z,59.97
2022-11-15T14:34:49.760Z,61.32
2022-11-15T14:37:53.699Z,60.91
2022-11-15T14:40:57.918Z,61.35
2022-11-15T14:44:01.671Z,61.29
2022-11-15T14:47:05.499Z,62.21
2022-11-15T14:50:14.159Z,62.46
2022-11-15T14:53:19.246Z,62.59
2022-11-15T14:56:22.930Z,63.35
2022-11-15T14:59:26.638Z,62.72
2022-11-15T15:02:30.479Z,62.63
2022-11-15T15:05:37.281Z,63.14
2022-11-15T15:08:41.008Z,62.88
2022-11-15T15:11:45.460Z,62.73
2022-11-15T15:14:51.162Z,62.85
2022-11-15T15:17:54.982Z,62.71
2022-11-15T15:21:04.130Z,63.21
2022-11-15T15:24:08.070Z,64.83
2022-11-15T15:27:12.080Z,65.82
2022-11-15T15:30:16.123Z,65.76
2022-11-15T15:33:19.811Z,66.24
2022-11-15T15:36:24.950Z,66.11
2022-11-15T15:39:28.701Z,66.00
2022-11-15T15:42:32.800Z,64.94
2022-11-15T15:45:37.871Z,65.20
2022-11-15T15:48:41.952Z,65.85
2022-11-15T15:51:47.020Z,66.29
2022-11-15T15:54:50.798Z,66.43
2022-11-15T15:57:54.610Z,66.70
2022-11-15T16:00:59.909Z,67.18
2022-11-15T16:04:03.649Z,67.31
2022-11-15T16:07:15.087Z,68.03
2022-11-15T16:10:26.108Z,67.96
2022-11-15T16:13:30.010Z,67.46
2022-11-15T16:16:33.679Z,66.75
2022-11-15T16:19:37.517Z,66.39
2022-11-15T16:22:42.836Z,66.84
2022-11-15T16:25:51.791Z,67.30
2022-11-15T16:28:55.818Z,67.58
2022-11-15T16:31:59.774Z,67.76
2022-11-15T16:35:03.507Z,68.33
2022-11-15T16:38:13.814Z,68.65
2022-11-15T16:41:19.400Z,67.67
2022-11-15T16:44:23.669Z,67.64
2022-11-15T16:47:27.379Z,67.76
2022-11-15T16:50:35.212Z,67.49
2022-11-15T16:53:40.610Z,67.26
2022-11-15T16:56:44.630Z,68.27
2022-11-15T16:59:48.462Z,67.53
2022-11-15T17:02:53.220Z,67.27
2022-11-15T17:05:59.820Z,67.01
2022-11-15T17:09:05.031Z,66.92
2022-11-15T17:12:09.750Z,66.84
2022-11-15T17:15:14.166Z,67.87
2022-11-15T17:18:17.890Z,67.17
2022-11-15T17:21:23.130Z,67.48
2022-11-15T17:24:28.241Z,67.92
2022-11-15T17:27:32.389Z,69.00
2022-11-15T17:30:36.507Z,68.98
2022-11-15T17:33:40.833Z,68.59
2022-11-15T17:36:44.439Z,68.93
2022-11-15T17:39:49.650Z,68.55
2022-11-15T17:42:53.590Z,68.95
2022-11-15T17:45:57.359Z,68.87
2022-11-15T17:49:01.161Z,68.87
2022-11-15T17:52:04.870Z,68.26
2022-11-15T17:55:11.210Z,68.23
2022-11-15T17:58:18.749Z,68.03
2022-11-15T18:01:24.534Z,68.04
2022-11-15T18:04:31.981Z,67.48
2022-11-15T18:07:35.742Z,66.65
2022-11-15T18:10:40.911Z,66.67
2022-11-15T18:13:51.874Z,67.15
2022-11-15T18:16:56.260Z,66.89
2022-11-15T18:20:00.171Z,66.75
2022-11-15T18:23:04.090Z,66.22
2022-11-15T18:26:11.411Z,66.84
2022-11-15T18:29:15.141Z,66.97
2022-11-15T18:32:18.810Z,67.51
2022-11-15T18:35:22.750Z,67.42
2022-11-15T18:38:31.181Z,67.66
2022-11-15T18:41:37.540Z,67.58
2022-11-15T18:44:41.141Z,67.02
2022-11-15T18:47:44.839Z,67.21
2022-11-15T18:50:49.249Z,67.40
2022-11-15T18:53:56.031Z,67.35
2022-11-15T18:57:01.940Z,67.73
2022-11-15T19:00:06.749Z,68.45
2022-11-15T19:03:10.331Z,68.24
2022-11-15T19:06:15.231Z,68.16
2022-11-15T19:09:20.573Z,68.47
2022-11-15T19:12:25.761Z,68.95
2022-11-15T19:15:29.529Z,70.42
2022-11-15T19:18:34.372Z,70.49
2022-11-15T19:21:38.549Z,70.40
2022-11-15T19:24:42.210Z,70.21
2022-11-15T19:27:47.300Z,70.07
2022-11-15T19:30:51.012Z,70.19
2022-11-15T19:33:55.702Z,69.15
2022-11-15T19:36:59.361Z,69.20
2022-11-15T19:40:04.380Z,69.08
2022-11-15T19:43:09.569Z,70.98
2022-11-15T19:46:14.090Z,70.91
2022-11-15T19:49:17.770Z,71.48
2022-11-15T19:52:22.660Z,71.31
2022-11-15T19:55:26.380Z,70.89
2022-11-15T19:58:32.180Z,70.71
2022-11-15T20:01:39.508Z,69.69
2022-11-15T20:04:43.290Z,69.17
2022-11-15T20:07:49.519Z,68.99
2022-11-15T20:10:53.190Z,69.24
2022-11-15T20:14:02.353Z,69.60
2022-11-15T20:17:06.100Z,69.99
2022-11-15T20:20:11.171Z,70.52
2022-11-15T20:23:15.259Z,70.08
2022-11-15T20:26:19.423Z,70.38
2022-11-15T20:29:24.790Z,70.53
2022-11-15T20:32:29.298Z,70.55
2022-11-15T20:35:32.949Z,71.98
2022-11-15T20:38:37.657Z,72.78
2022-11-15T20:41:41.362Z,72.51
2022-11-15T20:44:46.460Z,72.40
2022-11-15T20:47:50.341Z,72.58
2022-11-15T20:51:04.340Z,72.01
2022-11-15T20:54:09.118Z,71.05
2022-11-15T20:57:12.700Z,72.31
2022-11-15T21:00:22.580Z,71.17
2022-11-15T21:03:26.431Z,71.90
2022-11-15T21:06:30.200Z,71.77
2022-11-15T21:09:51.117Z,70.67
2022-11-15T21:12:54.919Z,70.55
2022-11-15T21:16:00.129Z,70.64
2022-11-15T21:19:03.805Z,69.78
2022-11-15T21:22:09.591Z,69.07
2022-11-15T21:25:17.400Z,72.10
2022-11-15T21:28:21.071Z,70.05
2022-11-15T21:31:26.520Z,70.41
2022-11-15T21:34:30.201Z,70.79
2022-11-15T21:37:34.000Z,70.11
2022-11-15T21:40:37.720Z,70.47
2022-11-15T21:43:41.420Z,70.37
2022-11-15T21:46:46.671Z,70.91
2022-11-15T21:49:50.319Z,70.98
2022-11-15T21:52:54.231Z,70.59
2022-11-15T21:55:57.982Z,70.08
2022-11-15T21:59:01.759Z,69.50
2022-11-15T22:02:15.710Z,69.51
2022-11-15T22:05:19.420Z,69.24
2022-11-15T22:08:23.699Z,69.16
2022-11-15T22:11:27.440Z,69.76
2022-11-15T22:14:31.218Z,70.64
2022-11-15T22:17:53.399Z,70.47
2022-11-15T22:20:58.210Z,70.82
2022-11-15T22:24:01.983Z,70.44
2022-11-15T22:27:05.942Z,70.71
2022-11-15T22:30:10.741Z,70.47
2022-11-15T22:33:15.961Z,71.58
2022-11-15T22:36:19.960Z,72.02
2022-11-15T22:39:23.668Z,71.40
2022-11-15T22:42:27.420Z,70.98
2022-11-15T22:45:31.128Z,72.20
2022-11-15T22:48:38.574Z,71.20
2022-11-15T22:51:42.640Z,70.96
2022-11-15T22:54:46.360Z,71.29
2022-11-15T22:57:50.060Z,71.04
2022-11-15T23:00:55.391Z,70.62
2022-11-15T23:04:00.529Z,70.79
2022-11-15T23:07:04.490Z,71.23
2022-11-15T23:10:29.070Z,70.63
2022-11-15T23:13:34.221Z,70.89
2022-11-15T23:16:38.150Z,71.12
2022-11-15T23:19:43.472Z,70.67
2022-11-15T23:22:50.033Z,70.54
2022-11-15T23:26:00.272Z,72.43
2022-11-15T23:29:04.013Z,72.16
2022-11-15T23:32:24.340Z,71.90
2022-11-15T23:35:29.639Z,70.82
2022-11-15T23:38:37.304Z,70.39
2022-11-15T23:41:41.101Z,70.44
2022-11-15T23:44:44.847Z,70.58
2022-11-15T23:47:48.650Z,70.24
2022-11-15T23:50:53.774Z,70.11
2022-11-15T23:53:57.702Z,70.05
2022-11-15T23:57:01.282Z,70.35
